sensor_id;sensor_type;location;lat;lon;timestamp;P1;durP1;ratioP1;P2;durP2;ratioP2
80647;SDS011;70012;0.000;0.000;2024-02-26T00:04:34;3.63;;;1.80;;
80647;SDS011;70012;0.000;0.000;2024-02-26T00:07:01;4.00;;;2.08;;
80647;SDS011;70012;0.000;0.000;2024-02-26T00:09:28;4.85;;;2.00;;
80647;SDS011;70012;0.000;0.000;2024-02-26T00:11:54;4.15;;;1.83;;
80647;SDS011;70012;0.000;0.000;2024-02-26T00:16:48;2.65;;;1.63;;
80647;SDS011;70012;0.000;0.000;2024-02-26T00:19:15;2.85;;;1.77;;
80647;SDS011;70012;0.000;0.000;2024-02-26T00:24:10;2.20;;;1.50;;
80647;SDS011;70012;0.000;0.000;2024-02-26T00:26:38;2.70;;;1.50;;
80647;SDS011;70012;0.000;0.000;2024-02-26T00:29:05;2.65;;;1.52;;
80647;SDS011;70012;0.000;0.000;2024-02-26T00:31:32;2.45;;;1.45;;
80647;SDS011;70012;0.000;0.000;2024-02-26T00:33:59;2.00;;;1.50;;
80647;SDS011;70012;0.000;0.000;2024-02-26T00:38:52;4.53;;;1.50;;
80647;SDS011;70012;0.000;0.000;2024-02-26T00:41:19;2.03;;;1.40;;
80647;SDS011;70012;0.000;0.000;2024-02-26T00:43:47;2.80;;;1.15;;
80647;SDS011;70012;0.000;0.000;2024-02-26T00:46:14;2.03;;;1.40;;
80647;SDS011;70012;0.000;0.000;2024-02-26T00:48:40;2.67;;;1.50;;
80647;SDS011;70012;0.000;0.000;2024-02-26T00:51:07;3.58;;;1.52;;
80647;SDS011;70012;0.000;0.000;2024-02-26T00:53:35;2.30;;;1.38;;
80647;SDS011;70012;0.000;0.000;2024-02-26T00:56:01;2.60;;;1.50;;
80647;SDS011;70012;0.000;0.000;2024-02-26T00:58:29;1.63;;;1.15;;
80647;SDS011;70012;0.000;0.000;2024-02-26T01:00:55;2.17;;;1.60;;
80647;SDS011;70012;0.000;0.000;2024-02-26T01:05:49;4.53;;;1.40;;
80647;SDS011;70012;0.000;0.000;2024-02-26T01:08:18;2.65;;;1.13;;
80647;SDS011;70012;0.000;0.000;2024-02-26T01:10:45;1.58;;;1.30;;
80647;SDS011;70012;0.000;0.000;2024-02-26T01:13:12;3.22;;;1.40;;
80647;SDS011;70012;0.000;0.000;2024-02-26T01:15:38;1.20;;;1.00;;
80647;SDS011;70012;0.000;0.000;2024-02-26T01:18:05;2.63;;;1.40;;
80647;SDS011;70012;0.000;0.000;2024-02-26T01:20:32;2.63;;;1.67;;
80647;SDS011;70012;0.000;0.000;2024-02-26T01:22:59;2.22;;;1.23;;
80647;SDS011;70012;0.000;0.000;2024-02-26T01:25:25;2.05;;;1.30;;
80647;SDS011;70012;0.000;0.000;2024-02-26T01:27:52;3.42;;;1.33;;
80647;SDS011;70012;0.000;0.000;2024-02-26T01:30:19;3.50;;;1.65;;
80647;SDS011;70012;0.000;0.000;2024-02-26T01:32:47;2.30;;;1.60;;
80647;SDS011;70012;0.000;0.000;2024-02-26T01:37:40;2.30;;;1.15;;
80647;SDS011;70012;0.000;0.000;2024-02-26T01:40:08;2.80;;;1.27;;
80647;SDS011;70012;0.000;0.000;2024-02-26T01:42:37;3.42;;;1.55;;
80647;SDS011;70012;0.000;0.000;2024-02-26T01:45:05;2.60;;;1.40;;
80647;SDS011;70012;0.000;0.000;2024-02-26T01:47:41;2.20;;;1.25;;
80647;SDS011;70012;0.000;0.000;2024-02-26T01:50:12;2.63;;;1.42;;
80647;SDS011;70012;0.000;0.000;2024-02-26T01:52:39;1.83;;;1.30;;
80647;SDS011;70012;0.000;0.000;2024-02-26T01:55:08;3.22;;;1.33;;
80647;SDS011;70012;0.000;0.000;2024-02-26T01:57:36;1.58;;;1.25;;
80647;SDS011;70012;0.000;0.000;2024-02-26T02:00:02;1.80;;;1.38;;
80647;SDS011;70012;0.000;0.000;2024-02-26T02:02:32;3.55;;;1.20;;
80647;SDS011;70012;0.000;0.000;2024-02-26T02:04:59;2.35;;;1.15;;
80647;SDS011;70012;0.000;0.000;2024-02-26T02:07:26;2.30;;;1.60;;
80647;SDS011;70012;0.000;0.000;2024-02-26T02:09:53;2.10;;;1.20;;
80647;SDS011;70012;0.000;0.000;2024-02-26T02:12:21;3.45;;;1.45;;
80647;SDS011;70012;0.000;0.000;2024-02-26T02:14:48;1.50;;;1.40;;
80647;SDS011;70012;0.000;0.000;2024-02-26T02:17:15;3.08;;;1.25;;
80647;SDS011;70012;0.000;0.000;2024-02-26T02:19:41;1.83;;;1.27;;
80647;SDS011;70012;0.000;0.000;2024-02-26T02:22:08;2.28;;;1.33;;
80647;SDS011;70012;0.000;0.000;2024-02-26T02:24:35;1.35;;;1.15;;
80647;SDS011;70012;0.000;0.000;2024-02-26T02:27:03;1.20;;;1.10;;
80647;SDS011;70012;0.000;0.000;2024-02-26T02:29:31;2.13;;;1.15;;
80647;SDS011;70012;0.000;0.000;2024-02-26T02:31:58;1.42;;;1.02;;
80647;SDS011;70012;0.000;0.000;2024-02-26T02:34:25;1.73;;;1.27;;
80647;SDS011;70012;0.000;0.000;2024-02-26T02:36:53;1.35;;;1.00;;
80647;SDS011;70012;0.000;0.000;2024-02-26T02:39:21;2.15;;;1.30;;
80647;SDS011;70012;0.000;0.000;2024-02-26T02:41:47;5.93;;;1.48;;
80647;SDS011;70012;0.000;0.000;2024-02-26T02:44:15;3.33;;;1.40;;
80647;SDS011;70012;0.000;0.000;2024-02-26T02:46:42;1.70;;;1.33;;
80647;SDS011;70012;0.000;0.000;2024-02-26T02:49:11;1.60;;;1.40;;
80647;SDS011;70012;0.000;0.000;2024-02-26T02:54:08;2.60;;;1.20;;
80647;SDS011;70012;0.000;0.000;2024-02-26T02:56:35;2.10;;;1.30;;
80647;SDS011;70012;0.000;0.000;2024-02-26T02:59:02;1.33;;;1.10;;
80647;SDS011;70012;0.000;0.000;2024-02-26T03:01:29;1.92;;;1.40;;
80647;SDS011;70012;0.000;0.000;2024-02-26T03:03:56;3.75;;;1.25;;
80647;SDS011;70012;0.000;0.000;2024-02-26T03:06:23;1.58;;;1.25;;
80647;SDS011;70012;0.000;0.000;2024-02-26T03:08:51;1.58;;;1.25;;
80647;SDS011;70012;0.000;0.000;2024-02-26T03:11:18;3.15;;;1.27;;
80647;SDS011;70012;0.000;0.000;2024-02-26T03:13:46;1.40;;;1.15;;
80647;SDS011;70012;0.000;0.000;2024-02-26T03:16:13;1.80;;;1.27;;
80647;SDS011;70012;0.000;0.000;2024-02-26T03:18:40;1.60;;;1.20;;
80647;SDS011;70012;0.000;0.000;2024-02-26T03:21:07;2.67;;;1.30;;
80647;SDS011;70012;0.000;0.000;2024-02-26T03:23:34;1.65;;;1.33;;
80647;SDS011;70012;0.000;0.000;2024-02-26T03:26:03;1.40;;;1.10;;
80647;SDS011;70012;0.000;0.000;2024-02-26T03:28:30;1.42;;;1.20;;
80647;SDS011;70012;0.000;0.000;2024-02-26T03:31:01;3.85;;;1.38;;
80647;SDS011;70012;0.000;0.000;2024-02-26T03:33:29;1.67;;;1.35;;
80647;SDS011;70012;0.000;0.000;2024-02-26T03:38:23;2.15;;;1.27;;
80647;SDS011;70012;0.000;0.000;2024-02-26T03:40:49;1.60;;;1.38;;
80647;SDS011;70012;0.000;0.000;2024-02-26T03:43:16;1.10;;;1.00;;
80647;SDS011;70012;0.000;0.000;2024-02-26T03:48:10;1.88;;;1.25;;
80647;SDS011;70012;0.000;0.000;2024-02-26T03:50:37;1.83;;;1.40;;
80647;SDS011;70012;0.000;0.000;2024-02-26T03:53:04;1.92;;;1.30;;
80647;SDS011;70012;0.000;0.000;2024-02-26T03:55:31;2.08;;;1.30;;
80647;SDS011;70012;0.000;0.000;2024-02-26T03:57:58;2.05;;;1.20;;
80647;SDS011;70012;0.000;0.000;2024-02-26T04:00:25;3.10;;;1.60;;
80647;SDS011;70012;0.000;0.000;2024-02-26T04:02:53;1.75;;;1.15;;
80647;SDS011;70012;0.000;0.000;2024-02-26T04:05:20;1.48;;;1.27;;
80647;SDS011;70012;0.000;0.000;2024-02-26T04:07:47;1.50;;;1.05;;
80647;SDS011;70012;0.000;0.000;2024-02-26T04:10:14;1.10;;;1.00;;
80647;SDS011;70012;0.000;0.000;2024-02-26T04:12:41;3.17;;;1.33;;
80647;SDS011;70012;0.000;0.000;2024-02-26T04:15:09;2.17;;;1.33;;
80647;SDS011;70012;0.000;0.000;2024-02-26T04:17:37;1.33;;;1.10;;
80647;SDS011;70012;0.000;0.000;2024-02-26T04:20:04;1.60;;;1.27;;
80647;SDS011;70012;0.000;0.000;2024-02-26T04:22:32;1.85;;;1.25;;
80647;SDS011;70012;0.000;0.000;2024-02-26T04:24:59;2.92;;;1.30;;
80647;SDS011;70012;0.000;0.000;2024-02-26T04:27:26;3.20;;;1.45;;
80647;SDS011;70012;0.000;0.000;2024-02-26T04:29:53;1.60;;;0.90;;
80647;SDS011;70012;0.000;0.000;2024-02-26T04:34:47;2.60;;;1.27;;
80647;SDS011;70012;0.000;0.000;2024-02-26T04:39:41;2.38;;;1.73;;
80647;SDS011;70012;0.000;0.000;2024-02-26T04:42:07;2.25;;;1.38;;
80647;SDS011;70012;0.000;0.000;2024-02-26T04:44:34;2.13;;;1.23;;
80647;SDS011;70012;0.000;0.000;2024-02-26T04:49:28;2.53;;;1.60;;
80647;SDS011;70012;0.000;0.000;2024-02-26T04:51:55;2.15;;;1.48;;
80647;SDS011;70012;0.000;0.000;2024-02-26T04:54:22;1.67;;;1.38;;
80647;SDS011;70012;0.000;0.000;2024-02-26T04:56:49;3.25;;;1.40;;
80647;SDS011;70012;0.000;0.000;2024-02-26T04:59:18;1.70;;;1.30;;
80647;SDS011;70012;0.000;0.000;2024-02-26T05:01:47;3.83;;;1.20;;
80647;SDS011;70012;0.000;0.000;2024-02-26T05:04:14;2.67;;;1.50;;
80647;SDS011;70012;0.000;0.000;2024-02-26T05:06:41;2.15;;;1.35;;
80647;SDS011;70012;0.000;0.000;2024-02-26T05:09:08;2.63;;;1.30;;
80647;SDS011;70012;0.000;0.000;2024-02-26T05:11:35;4.28;;;1.40;;
80647;SDS011;70012;0.000;0.000;2024-02-26T05:14:03;1.50;;;1.30;;
80647;SDS011;70012;0.000;0.000;2024-02-26T05:16:30;3.22;;;1.80;;
80647;SDS011;70012;0.000;0.000;2024-02-26T05:18:57;4.18;;;1.88;;
80647;SDS011;70012;0.000;0.000;2024-02-26T05:23:52;2.70;;;1.58;;
80647;SDS011;70012;0.000;0.000;2024-02-26T05:26:23;2.42;;;1.40;;
80647;SDS011;70012;0.000;0.000;2024-02-26T05:28:50;1.85;;;1.33;;
80647;SDS011;70012;0.000;0.000;2024-02-26T05:31:18;3.90;;;1.70;;
80647;SDS011;70012;0.000;0.000;2024-02-26T05:33:46;1.95;;;1.38;;
80647;SDS011;70012;0.000;0.000;2024-02-26T05:36:17;1.38;;;1.25;;
80647;SDS011;70012;0.000;0.000;2024-02-26T05:38:47;2.22;;;1.40;;
80647;SDS011;70012;0.000;0.000;2024-02-26T05:41:15;2.42;;;1.33;;
80647;SDS011;70012;0.000;0.000;2024-02-26T05:43:49;2.72;;;1.70;;
80647;SDS011;70012;0.000;0.000;2024-02-26T05:46:19;2.05;;;1.40;;
80647;SDS011;70012;0.000;0.000;2024-02-26T05:48:49;2.72;;;1.70;;
80647;SDS011;70012;0.000;0.000;2024-02-26T05:51:17;2.95;;;1.58;;
80647;SDS011;70012;0.000;0.000;2024-02-26T05:53:45;3.35;;;1.48;;
80647;SDS011;70012;0.000;0.000;2024-02-26T05:56:13;2.42;;;1.63;;
80647;SDS011;70012;0.000;0.000;2024-02-26T05:58:40;1.60;;;1.38;;
80647;SDS011;70012;0.000;0.000;2024-02-26T06:01:07;2.40;;;1.58;;
80647;SDS011;70012;0.000;0.000;2024-02-26T06:03:34;2.25;;;1.70;;
80647;SDS011;70012;0.000;0.000;2024-02-26T06:06:01;2.58;;;1.50;;
80647;SDS011;70012;0.000;0.000;2024-02-26T06:08:30;2.97;;;1.60;;
80647;SDS011;70012;0.000;0.000;2024-02-26T06:10:57;3.05;;;1.90;;
80647;SDS011;70012;0.000;0.000;2024-02-26T06:13:24;3.08;;;1.83;;
80647;SDS011;70012;0.000;0.000;2024-02-26T06:15:52;3.67;;;1.98;;
80647;SDS011;70012;0.000;0.000;2024-02-26T06:18:19;5.18;;;2.47;;
80647;SDS011;70012;0.000;0.000;2024-02-26T06:20:46;2.88;;;1.75;;
80647;SDS011;70012;0.000;0.000;2024-02-26T06:23:14;5.65;;;1.80;;
80647;SDS011;70012;0.000;0.000;2024-02-26T06:25:42;4.85;;;2.22;;
80647;SDS011;70012;0.000;0.000;2024-02-26T06:28:09;4.65;;;2.05;;
80647;SDS011;70012;0.000;0.000;2024-02-26T06:30:38;4.47;;;1.95;;
80647;SDS011;70012;0.000;0.000;2024-02-26T06:33:05;2.53;;;1.90;;
80647;SDS011;70012;0.000;0.000;2024-02-26T06:35:33;3.13;;;1.80;;
80647;SDS011;70012;0.000;0.000;2024-02-26T06:38:00;3.65;;;1.70;;
80647;SDS011;70012;0.000;0.000;2024-02-26T06:40:27;3.53;;;2.08;;
80647;SDS011;70012;0.000;0.000;2024-02-26T06:42:54;2.45;;;1.63;;
80647;SDS011;70012;0.000;0.000;2024-02-26T06:45:22;2.00;;;1.80;;
80647;SDS011;70012;0.000;0.000;2024-02-26T06:47:49;4.80;;;1.92;;
80647;SDS011;70012;0.000;0.000;2024-02-26T06:50:18;2.90;;;1.80;;
80647;SDS011;70012;0.000;0.000;2024-02-26T06:52:45;2.33;;;1.60;;
80647;SDS011;70012;0.000;0.000;2024-02-26T06:55:14;3.28;;;1.80;;
80647;SDS011;70012;0.000;0.000;2024-02-26T06:57:42;3.55;;;2.22;;
80647;SDS011;70012;0.000;0.000;2024-02-26T07:00:09;1.98;;;1.58;;
80647;SDS011;70012;0.000;0.000;2024-02-26T07:02:42;3.05;;;1.98;;
80647;SDS011;70012;0.000;0.000;2024-02-26T07:05:10;2.00;;;1.52;;
80647;SDS011;70012;0.000;0.000;2024-02-26T07:07:39;2.92;;;2.00;;
80647;SDS011;70012;0.000;0.000;2024-02-26T07:10:06;3.42;;;2.00;;
80647;SDS011;70012;0.000;0.000;2024-02-26T07:12:33;2.00;;;1.60;;
80647;SDS011;70012;0.000;0.000;2024-02-26T07:15:01;3.45;;;2.03;;
80647;SDS011;70012;0.000;0.000;2024-02-26T07:17:29;3.15;;;2.05;;
80647;SDS011;70012;0.000;0.000;2024-02-26T07:19:56;3.80;;;1.90;;
80647;SDS011;70012;0.000;0.000;2024-02-26T07:22:23;2.33;;;1.80;;
80647;SDS011;70012;0.000;0.000;2024-02-26T07:24:52;2.65;;;1.75;;
80647;SDS011;70012;0.000;0.000;2024-02-26T07:27:23;2.80;;;1.80;;
80647;SDS011;70012;0.000;0.000;2024-02-26T07:29:50;2.70;;;2.00;;
80647;SDS011;70012;0.000;0.000;2024-02-26T07:32:17;2.47;;;2.10;;
80647;SDS011;70012;0.000;0.000;2024-02-26T07:34:44;3.53;;;2.00;;
80647;SDS011;70012;0.000;0.000;2024-02-26T07:37:11;4.20;;;2.30;;
80647;SDS011;70012;0.000;0.000;2024-02-26T07:39:38;3.65;;;2.22;;
80647;SDS011;70012;0.000;0.000;2024-02-26T07:42:05;3.28;;;1.73;;
80647;SDS011;70012;0.000;0.000;2024-02-26T07:44:33;4.85;;;1.88;;
80647;SDS011;70012;0.000;0.000;2024-02-26T07:47:01;2.40;;;1.80;;
80647;SDS011;70012;0.000;0.000;2024-02-26T07:49:30;3.55;;;1.92;;
80647;SDS011;70012;0.000;0.000;2024-02-26T07:52:01;4.82;;;2.35;;
80647;SDS011;70012;0.000;0.000;2024-02-26T07:56:55;3.50;;;1.92;;
80647;SDS011;70012;0.000;0.000;2024-02-26T07:59:22;3.75;;;2.10;;
80647;SDS011;70012;0.000;0.000;2024-02-26T08:01:49;4.30;;;2.03;;
80647;SDS011;70012;0.000;0.000;2024-02-26T08:04:23;2.45;;;1.80;;
80647;SDS011;70012;0.000;0.000;2024-02-26T08:06:50;3.33;;;1.90;;
80647;SDS011;70012;0.000;0.000;2024-02-26T08:09:18;2.55;;;1.83;;
80647;SDS011;70012;0.000;0.000;2024-02-26T08:11:46;2.45;;;1.77;;
80647;SDS011;70012;0.000;0.000;2024-02-26T08:14:14;3.17;;;2.05;;
80647;SDS011;70012;0.000;0.000;2024-02-26T08:16:43;2.97;;;2.20;;
80647;SDS011;70012;0.000;0.000;2024-02-26T08:19:13;3.95;;;2.33;;
80647;SDS011;70012;0.000;0.000;2024-02-26T08:21:41;3.33;;;2.00;;
80647;SDS011;70012;0.000;0.000;2024-02-26T08:24:09;3.15;;;2.10;;
80647;SDS011;70012;0.000;0.000;2024-02-26T08:26:37;3.28;;;2.13;;
80647;SDS011;70012;0.000;0.000;2024-02-26T08:29:04;3.25;;;1.70;;
80647;SDS011;70012;0.000;0.000;2024-02-26T08:31:30;2.63;;;2.00;;
80647;SDS011;70012;0.000;0.000;2024-02-26T08:33:57;3.83;;;1.80;;
80647;SDS011;70012;0.000;0.000;2024-02-26T08:36:27;3.28;;;2.15;;
80647;SDS011;70012;0.000;0.000;2024-02-26T08:38:55;4.63;;;2.65;;
80647;SDS011;70012;0.000;0.000;2024-02-26T08:43:50;2.70;;;1.85;;
80647;SDS011;70012;0.000;0.000;2024-02-26T08:46:17;2.53;;;1.92;;
80647;SDS011;70012;0.000;0.000;2024-02-26T08:53:39;2.42;;;1.70;;
80647;SDS011;70012;0.000;0.000;2024-02-26T08:56:09;5.13;;;2.15;;
80647;SDS011;70012;0.000;0.000;2024-02-26T08:58:38;2.20;;;1.70;;
80647;SDS011;70012;0.000;0.000;2024-02-26T09:01:06;3.03;;;1.83;;
80647;SDS011;70012;0.000;0.000;2024-02-26T09:03:36;4.28;;;1.95;;
80647;SDS011;70012;0.000;0.000;2024-02-26T09:08:30;2.85;;;1.70;;
80647;SDS011;70012;0.000;0.000;2024-02-26T09:10:57;2.90;;;1.90;;
80647;SDS011;70012;0.000;0.000;2024-02-26T09:13:23;3.53;;;2.13;;
80647;SDS011;70012;0.000;0.000;2024-02-26T09:15:50;3.95;;;2.08;;
80647;SDS011;70012;0.000;0.000;2024-02-26T09:18:18;4.47;;;2.17;;
80647;SDS011;70012;0.000;0.000;2024-02-26T09:20:45;4.60;;;2.10;;
80647;SDS011;70012;0.000;0.000;2024-02-26T09:25:39;4.00;;;2.33;;
80647;SDS011;70012;0.000;0.000;2024-02-26T09:28:06;4.80;;;2.63;;
80647;SDS011;70012;0.000;0.000;2024-02-26T09:30:33;3.17;;;2.20;;
80647;SDS011;70012;0.000;0.000;2024-02-26T09:33:00;3.50;;;2.03;;
80647;SDS011;70012;0.000;0.000;2024-02-26T09:35:28;5.65;;;2.40;;
80647;SDS011;70012;0.000;0.000;2024-02-26T09:37:57;3.83;;;2.58;;
80647;SDS011;70012;0.000;0.000;2024-02-26T09:40:24;3.50;;;2.50;;
80647;SDS011;70012;0.000;0.000;2024-02-26T09:42:51;3.38;;;1.88;;
80647;SDS011;70012;0.000;0.000;2024-02-26T09:45:23;3.80;;;2.33;;
80647;SDS011;70012;0.000;0.000;2024-02-26T09:47:55;3.00;;;1.80;;
80647;SDS011;70012;0.000;0.000;2024-02-26T09:50:23;4.57;;;2.30;;
80647;SDS011;70012;0.000;0.000;2024-02-26T09:52:51;3.08;;;1.95;;
80647;SDS011;70012;0.000;0.000;2024-02-26T09:55:21;2.70;;;1.80;;
80647;SDS011;70012;0.000;0.000;2024-02-26T09:57:48;4.70;;;2.22;;
80647;SDS011;70012;0.000;0.000;2024-02-26T10:00:18;3.60;;;2.15;;
80647;SDS011;70012;0.000;0.000;2024-02-26T10:02:48;4.18;;;2.00;;
80647;SDS011;70012;0.000;0.000;2024-02-26T10:05:16;3.33;;;2.17;;
80647;SDS011;70012;0.000;0.000;2024-02-26T10:07:47;5.03;;;2.30;;
80647;SDS011;70012;0.000;0.000;2024-02-26T10:10:14;3.90;;;2.40;;
80647;SDS011;70012;0.000;0.000;2024-02-26T10:12:42;4.65;;;2.30;;
80647;SDS011;70012;0.000;0.000;2024-02-26T10:15:09;5.43;;;2.33;;
80647;SDS011;70012;0.000;0.000;2024-02-26T10:17:37;2.50;;;1.90;;
80647;SDS011;70012;0.000;0.000;2024-02-26T10:20:15;4.20;;;2.47;;
80647;SDS011;70012;0.000;0.000;2024-02-26T10:22:45;4.55;;;2.72;;
80647;SDS011;70012;0.000;0.000;2024-02-26T10:25:13;3.45;;;2.20;;
80647;SDS011;70012;0.000;0.000;2024-02-26T10:27:41;5.45;;;2.15;;
80647;SDS011;70012;0.000;0.000;2024-02-26T10:30:16;2.90;;;2.20;;
80647;SDS011;70012;0.000;0.000;2024-02-26T10:32:45;4.28;;;2.47;;
80647;SDS011;70012;0.000;0.000;2024-02-26T10:35:14;2.85;;;1.75;;
80647;SDS011;70012;0.000;0.000;2024-02-26T10:37:44;4.05;;;2.30;;
80647;SDS011;70012;0.000;0.000;2024-02-26T10:40:13;3.88;;;2.42;;
80647;SDS011;70012;0.000;0.000;2024-02-26T10:42:42;5.25;;;2.33;;
80647;SDS011;70012;0.000;0.000;2024-02-26T10:45:11;3.83;;;2.47;;
80647;SDS011;70012;0.000;0.000;2024-02-26T10:47:38;4.80;;;2.60;;
80647;SDS011;70012;0.000;0.000;2024-02-26T10:50:09;4.60;;;2.53;;
80647;SDS011;70012;0.000;0.000;2024-02-26T10:52:37;5.88;;;2.25;;
80647;SDS011;70012;0.000;0.000;2024-02-26T10:55:05;4.25;;;2.00;;
80647;SDS011;70012;0.000;0.000;2024-02-26T10:57:37;3.28;;;2.15;;
80647;SDS011;70012;0.000;0.000;2024-02-26T11:00:07;3.53;;;2.17;;
80647;SDS011;70012;0.000;0.000;2024-02-26T11:02:40;2.88;;;2.10;;
80647;SDS011;70012;0.000;0.000;2024-02-26T11:05:07;3.95;;;2.22;;
80647;SDS011;70012;0.000;0.000;2024-02-26T11:07:35;3.72;;;2.25;;
80647;SDS011;70012;0.000;0.000;2024-02-26T11:10:04;3.78;;;2.22;;
80647;SDS011;70012;0.000;0.000;2024-02-26T11:12:32;3.47;;;2.30;;
80647;SDS011;70012;0.000;0.000;2024-02-26T11:15:06;5.28;;;2.20;;
80647;SDS011;70012;0.000;0.000;2024-02-26T11:17:36;5.07;;;2.20;;
80647;SDS011;70012;0.000;0.000;2024-02-26T11:20:05;3.15;;;2.10;;
80647;SDS011;70012;0.000;0.000;2024-02-26T11:22:43;7.25;;;2.13;;
80647;SDS011;70012;0.000;0.000;2024-02-26T11:25:10;3.58;;;2.17;;
80647;SDS011;70012;0.000;0.000;2024-02-26T11:27:41;3.90;;;2.20;;
80647;SDS011;70012;0.000;0.000;2024-02-26T11:30:12;3.38;;;2.15;;
80647;SDS011;70012;0.000;0.000;2024-02-26T11:32:40;3.00;;;2.28;;
80647;SDS011;70012;0.000;0.000;2024-02-26T11:35:11;3.42;;;2.10;;
80647;SDS011;70012;0.000;0.000;2024-02-26T11:37:41;3.63;;;2.30;;
80647;SDS011;70012;0.000;0.000;2024-02-26T11:40:18;3.80;;;2.25;;
80647;SDS011;70012;0.000;0.000;2024-02-26T11:42:46;4.18;;;2.17;;
80647;SDS011;70012;0.000;0.000;2024-02-26T11:48:12;4.10;;;1.77;;
80647;SDS011;70012;0.000;0.000;2024-02-26T11:50:42;3.90;;;2.20;;
80647;SDS011;70012;0.000;0.000;2024-02-26T11:53:19;4.90;;;2.50;;
80647;SDS011;70012;0.000;0.000;2024-02-26T11:58:46;3.70;;;2.13;;
80647;SDS011;70012;0.000;0.000;2024-02-26T12:04:04;4.35;;;2.53;;
80647;SDS011;70012;0.000;0.000;2024-02-26T12:06:41;5.85;;;3.13;;
80647;SDS011;70012;0.000;0.000;2024-02-26T12:09:11;6.75;;;3.28;;
80647;SDS011;70012;0.000;0.000;2024-02-26T12:11:43;5.13;;;2.63;;
80647;SDS011;70012;0.000;0.000;2024-02-26T12:14:11;5.72;;;3.00;;
80647;SDS011;70012;0.000;0.000;2024-02-26T12:19:06;4.53;;;2.50;;
80647;SDS011;70012;0.000;0.000;2024-02-26T12:21:38;3.05;;;2.22;;
80647;SDS011;70012;0.000;0.000;2024-02-26T12:24:11;4.00;;;2.13;;
80647;SDS011;70012;0.000;0.000;2024-02-26T12:26:44;4.30;;;2.67;;
80647;SDS011;70012;0.000;0.000;2024-02-26T12:29:11;4.25;;;2.80;;
80647;SDS011;70012;0.000;0.000;2024-02-26T12:31:39;3.85;;;2.50;;
80647;SDS011;70012;0.000;0.000;2024-02-26T12:34:07;5.80;;;2.60;;
80647;SDS011;70012;0.000;0.000;2024-02-26T12:36:36;4.22;;;2.58;;
80647;SDS011;70012;0.000;0.000;2024-02-26T12:39:04;5.07;;;2.75;;
80647;SDS011;70012;0.000;0.000;2024-02-26T12:41:32;4.43;;;2.55;;
80647;SDS011;70012;0.000;0.000;2024-02-26T12:44:00;3.03;;;2.38;;
80647;SDS011;70012;0.000;0.000;2024-02-26T12:46:29;4.20;;;2.60;;
80647;SDS011;70012;0.000;0.000;2024-02-26T12:48:58;4.88;;;2.65;;
80647;SDS011;70012;0.000;0.000;2024-02-26T12:51:26;4.28;;;2.88;;
80647;SDS011;70012;0.000;0.000;2024-02-26T12:53:53;3.75;;;2.80;;
80647;SDS011;70012;0.000;0.000;2024-02-26T12:56:24;3.67;;;2.17;;
80647;SDS011;70012;0.000;0.000;2024-02-26T12:58:53;4.78;;;2.50;;
80647;SDS011;70012;0.000;0.000;2024-02-26T13:01:23;4.03;;;2.13;;
80647;SDS011;70012;0.000;0.000;2024-02-26T13:03:51;3.80;;;2.10;;
80647;SDS011;70012;0.000;0.000;2024-02-26T13:06:20;3.30;;;2.55;;
80647;SDS011;70012;0.000;0.000;2024-02-26T13:08:48;3.78;;;2.63;;
80647;SDS011;70012;0.000;0.000;2024-02-26T13:11:16;3.40;;;2.40;;
80647;SDS011;70012;0.000;0.000;2024-02-26T13:13:47;3.95;;;2.08;;
80647;SDS011;70012;0.000;0.000;2024-02-26T13:16:14;3.70;;;2.88;;
80647;SDS011;70012;0.000;0.000;2024-02-26T13:18:41;4.47;;;2.45;;
80647;SDS011;70012;0.000;0.000;2024-02-26T13:23:37;4.13;;;2.35;;
80647;SDS011;70012;0.000;0.000;2024-02-26T13:26:06;4.88;;;2.58;;
80647;SDS011;70012;0.000;0.000;2024-02-26T13:28:34;4.72;;;2.95;;
80647;SDS011;70012;0.000;0.000;2024-02-26T13:31:01;5.80;;;2.75;;
80647;SDS011;70012;0.000;0.000;2024-02-26T13:33:30;5.32;;;2.78;;
80647;SDS011;70012;0.000;0.000;2024-02-26T13:35:57;4.10;;;2.47;;
80647;SDS011;70012;0.000;0.000;2024-02-26T13:38:25;3.97;;;2.50;;
80647;SDS011;70012;0.000;0.000;2024-02-26T13:40:53;4.45;;;2.55;;
80647;SDS011;70012;0.000;0.000;2024-02-26T13:43:20;4.78;;;2.70;;
80647;SDS011;70012;0.000;0.000;2024-02-26T13:48:14;4.18;;;2.72;;
80647;SDS011;70012;0.000;0.000;2024-02-26T13:50:42;4.22;;;2.60;;
80647;SDS011;70012;0.000;0.000;2024-02-26T13:53:10;3.50;;;2.28;;
80647;SDS011;70012;0.000;0.000;2024-02-26T13:55:37;3.50;;;2.58;;
80647;SDS011;70012;0.000;0.000;2024-02-26T13:58:06;6.45;;;2.97;;
80647;SDS011;70012;0.000;0.000;2024-02-26T14:00:33;4.60;;;2.80;;
80647;SDS011;70012;0.000;0.000;2024-02-26T14:03:01;5.05;;;3.10;;
80647;SDS011;70012;0.000;0.000;2024-02-26T14:05:29;6.65;;;3.13;;
80647;SDS011;70012;0.000;0.000;2024-02-26T14:07:56;5.03;;;2.97;;
80647;SDS011;70012;0.000;0.000;2024-02-26T14:10:24;3.70;;;2.35;;
80647;SDS011;70012;0.000;0.000;2024-02-26T14:12:51;6.63;;;3.22;;
80647;SDS011;70012;0.000;0.000;2024-02-26T14:17:44;6.85;;;2.83;;
80647;SDS011;70012;0.000;0.000;2024-02-26T14:20:12;5.15;;;3.22;;
80647;SDS011;70012;0.000;0.000;2024-02-26T14:22:39;5.53;;;3.30;;
80647;SDS011;70012;0.000;0.000;2024-02-26T14:25:06;4.60;;;2.83;;
80647;SDS011;70012;0.000;0.000;2024-02-26T14:27:36;4.25;;;3.13;;
80647;SDS011;70012;0.000;0.000;2024-02-26T14:32:29;4.55;;;2.72;;
80647;SDS011;70012;0.000;0.000;2024-02-26T14:35:01;4.20;;;2.70;;
80647;SDS011;70012;0.000;0.000;2024-02-26T14:37:30;6.57;;;2.88;;
80647;SDS011;70012;0.000;0.000;2024-02-26T14:39:56;7.32;;;3.40;;
80647;SDS011;70012;0.000;0.000;2024-02-26T14:42:23;6.15;;;3.08;;
80647;SDS011;70012;0.000;0.000;2024-02-26T14:44:51;6.20;;;3.72;;
80647;SDS011;70012;0.000;0.000;2024-02-26T14:49:45;5.13;;;3.40;;
80647;SDS011;70012;0.000;0.000;2024-02-26T14:52:14;5.32;;;3.00;;
80647;SDS011;70012;0.000;0.000;2024-02-26T14:54:41;5.20;;;3.05;;
80647;SDS011;70012;0.000;0.000;2024-02-26T14:57:08;5.90;;;3.20;;
80647;SDS011;70012;0.000;0.000;2024-02-26T14:59:35;9.60;;;3.40;;
80647;SDS011;70012;0.000;0.000;2024-02-26T15:02:05;5.15;;;3.60;;
80647;SDS011;70012;0.000;0.000;2024-02-26T15:04:32;6.93;;;4.07;;
80647;SDS011;70012;0.000;0.000;2024-02-26T15:06:59;7.93;;;4.22;;
80647;SDS011;70012;0.000;0.000;2024-02-26T15:09:27;5.38;;;3.63;;
80647;SDS011;70012;0.000;0.000;2024-02-26T15:11:53;5.60;;;3.97;;
80647;SDS011;70012;0.000;0.000;2024-02-26T15:14:20;6.85;;;4.20;;
80647;SDS011;70012;0.000;0.000;2024-02-26T15:16:47;7.70;;;4.13;;
80647;SDS011;70012;0.000;0.000;2024-02-26T15:19:14;7.03;;;4.10;;
80647;SDS011;70012;0.000;0.000;2024-02-26T15:21:43;6.28;;;3.95;;
80647;SDS011;70012;0.000;0.000;2024-02-26T15:24:14;6.72;;;4.68;;
80647;SDS011;70012;0.000;0.000;2024-02-26T15:26:45;6.35;;;3.92;;
80647;SDS011;70012;0.000;0.000;2024-02-26T15:29:12;6.05;;;4.00;;
80647;SDS011;70012;0.000;0.000;2024-02-26T15:31:39;8.25;;;4.60;;
80647;SDS011;70012;0.000;0.000;2024-02-26T15:34:06;6.63;;;4.47;;
80647;SDS011;70012;0.000;0.000;2024-02-26T15:36:34;10.65;;;5.20;;
80647;SDS011;70012;0.000;0.000;2024-02-26T15:39:02;8.90;;;4.90;;
80647;SDS011;70012;0.000;0.000;2024-02-26T15:41:31;9.88;;;4.28;;
80647;SDS011;70012;0.000;0.000;2024-02-26T15:43:58;9.00;;;4.43;;
80647;SDS011;70012;0.000;0.000;2024-02-26T15:46:26;9.40;;;4.70;;
80647;SDS011;70012;0.000;0.000;2024-02-26T15:48:55;7.50;;;5.00;;
80647;SDS011;70012;0.000;0.000;2024-02-26T15:51:22;9.88;;;4.70;;
80647;SDS011;70012;0.000;0.000;2024-02-26T15:53:53;6.95;;;4.03;;
80647;SDS011;70012;0.000;0.000;2024-02-26T15:56:20;8.23;;;4.63;;
80647;SDS011;70012;0.000;0.000;2024-02-26T15:58:51;6.30;;;3.75;;
80647;SDS011;70012;0.000;0.000;2024-02-26T16:01:19;6.68;;;4.03;;
80647;SDS011;70012;0.000;0.000;2024-02-26T16:03:51;6.65;;;3.97;;
80647;SDS011;70012;0.000;0.000;2024-02-26T16:06:22;5.78;;;3.92;;
80647;SDS011;70012;0.000;0.000;2024-02-26T16:08:55;7.68;;;4.15;;
80647;SDS011;70012;0.000;0.000;2024-02-26T16:11:22;6.60;;;4.18;;
80647;SDS011;70012;0.000;0.000;2024-02-26T16:16:19;6.90;;;4.10;;
80647;SDS011;70012;0.000;0.000;2024-02-26T16:18:49;7.20;;;3.67;;